createdAt,value
2023-02-01T00:00:19.457Z,98813.97
2023-02-01T00:02:22.245Z,98816.94
2023-02-01T00:04:24.853Z,98812.59
2023-02-01T00:06:27.901Z,98818.84
2023-02-01T00:08:31.020Z,98824.22
2023-02-01T00:10:34.051Z,98818.28
2023-02-01T00:12:36.649Z,98820.44
2023-02-01T00:14:40.659Z,98811.53
2023-02-01T00:16:43.398Z,98811.28
2023-02-01T00:18:47.543Z,98806.66
2023-02-01T00:20:50.217Z,98809.91
2023-02-01T00:22:52.839Z,98810.72
2023-02-01T00:24:55.498Z,98818.28
2023-02-01T00:26:58.216Z,98813.97
2023-02-01T00:29:01.759Z,98816.69
2023-02-01T00:31:05.722Z,98808.03
2023-02-01T00:33:08.524Z,98815.59
2023-02-01T00:35:11.165Z,98807.50
2023-02-01T00:37:13.897Z,98799.09
2023-02-01T00:39:17.945Z,98799.38
2023-02-01T00:41:21.794Z,98783.97
2023-02-01T00:43:24.480Z,98785.59
2023-02-01T00:45:27.157Z,98786.66
2023-02-01T00:47:31.649Z,98770.22
2023-02-01T00:49:34.344Z,98792.06
2023-02-01T00:51:36.998Z,98783.72
2023-02-01T00:53:39.948Z,98790.19
2023-02-01T00:55:46.845Z,98789.91
2023-02-01T00:57:49.557Z,98781.03
2023-02-01T00:59:52.147Z,98779.94
2023-02-01T01:01:54.957Z,98774.53
2023-02-01T01:03:59.696Z,98766.69
2023-02-01T01:06:06.260Z,98784.53
2023-02-01T01:08:09.029Z,98796.16
2023-02-01T01:10:11.866Z,98849.09
2023-02-01T01:12:15.261Z,98837.44
2023-02-01T01:14:18.262Z,98846.09
2023-02-01T01:16:23.339Z,98838.25
2023-02-01T01:18:26.027Z,98843.38
2023-02-01T01:20:28.639Z,98841.50
2023-02-01T01:22:31.282Z,98847.16
2023-02-01T01:24:33.986Z,98846.34
2023-02-01T01:26:36.622Z,98847.69
2023-02-01T01:28:39.513Z,98848.22
2023-02-01T01:30:42.153Z,98842.28
2023-02-01T01:32:45.111Z,98837.44
2023-02-01T01:34:47.951Z,98849.53
2023-02-01T01:36:50.578Z,98843.63
2023-02-01T01:38:53.343Z,98854.69
2023-02-01T01:40:56.034Z,98851.97
2023-02-01T01:42:59.045Z,98854.38
2023-02-01T01:45:10.064Z,98850.88
2023-02-01T01:47:13.030Z,98842.50
2023-02-01T01:49:21.703Z,98857.63
2023-02-01T01:51:27.793Z,98848.16
2023-02-01T01:53:43.055Z,98848.97
2023-02-01T01:55:49.591Z,98840.88
2023-02-01T01:58:00.599Z,98843.81
2023-02-01T02:00:12.879Z,98836.00
2023-02-01T02:02:16.660Z,98840.31
2023-02-01T02:04:20.242Z,98847.84
2023-02-01T02:06:31.707Z,98840.00
2023-02-01T02:08:34.517Z,98833.25
2023-02-01T02:10:57.605Z,98844.03
2023-02-01T02:13:00.250Z,98837.28
2023-02-01T02:15:06.396Z,98833.47
2023-02-01T02:17:10.388Z,98844.59
2023-02-01T02:19:37.852Z,98843.78
2023-02-01T02:21:52.305Z,98849.44
2023-02-01T02:24:31.846Z,98856.72
2023-02-01T02:27:02.746Z,98848.31
2023-02-01T02:29:30.211Z,98845.88
2023-02-01T02:31:42.446Z,98851.00
2023-02-01T02:33:55.841Z,98859.63
2023-02-01T02:36:01.499Z,98864.25
2023-02-01T02:38:18.647Z,98862.91
2023-02-01T02:40:39.863Z,98862.09
2023-02-01T02:43:19.806Z,98870.44
2023-02-01T02:45:49.958Z,98866.38
2023-02-01T02:48:07.642Z,98872.59
2023-02-01T02:50:32.212Z,98866.63
2023-02-01T02:52:58.534Z,98875.78
2023-02-01T02:55:05.108Z,98881.41
2023-02-01T02:57:31.619Z,98891.97
2023-02-01T02:59:54.824Z,98898.97
2023-02-01T03:02:16.587Z,98892.78
2023-02-01T03:04:21.297Z,98903.56
2023-02-01T03:06:26.260Z,98901.97
2023-02-01T03:08:30.947Z,98903.84
2023-02-01T03:10:43.440Z,98898.44
2023-02-01T03:12:58.203Z,98907.09
2023-02-01T03:15:09.452Z,98891.13
2023-02-01T03:17:16.985Z,98895.47
2023-02-01T03:19:26.698Z,98900.63
2023-02-01T03:22:06.457Z,98899.31
2023-02-01T03:26:46.806Z,98901.44
2023-02-01T03:31:17.691Z,98891.69
2023-02-01T03:33:29.847Z,98895.75
2023-02-01T03:38:02.807Z,98891.91
2023-02-01T03:40:12.203Z,98898.13
2023-02-01T03:54:42.159Z,98919.28
2023-02-01T03:56:50.450Z,98922.50
2023-02-01T04:01:18.832Z,98926.44
2023-02-01T04:03:22.987Z,98926.72
2023-02-01T04:05:25.948Z,98926.75
2023-02-01T04:07:28.604Z,98925.31
2023-02-01T04:09:31.607Z,98926.31
2023-02-01T04:11:34.267Z,98917.41
2023-02-01T04:13:36.922Z,98925.72
2023-02-01T04:15:39.636Z,98927.91
2023-02-01T04:17:42.248Z,98930.09
2023-02-01T04:19:44.909Z,98933.03
2023-02-01T04:21:47.624Z,98931.44
2023-02-01T04:23:50.318Z,98934.41
2023-02-01T04:25:53.034Z,98928.81
2023-02-01T04:27:55.799Z,98937.13
2023-02-01T04:29:58.675Z,98932.78
2023-02-01T04:32:01.347Z,98941.38
2023-02-01T04:34:04.085Z,98922.78
2023-02-01T04:36:07.024Z,98938.16
2023-02-01T04:38:09.671Z,98953.28
2023-02-01T04:40:12.854Z,98959.78
2023-02-01T04:42:15.819Z,98949.56
2023-02-01T04:44:20.090Z,98958.50
2023-02-01T04:46:23.191Z,98951.22
2023-02-01T04:48:25.949Z,98953.91
2023-02-01T04:50:28.707Z,98960.97
2023-02-01T04:52:31.363Z,98959.97
2023-02-01T04:54:34.096Z,98960.47
2023-02-01T04:56:36.799Z,98981.84
2023-02-01T04:58:39.503Z,98981.59
2023-02-01T05:00:42.149Z,98982.44
2023-02-01T05:02:44.856Z,98985.97
2023-02-01T05:04:47.594Z,98988.91
2023-02-01T05:06:50.520Z,98991.34
2023-02-01T05:08:53.187Z,98987.56
2023-02-01T05:10:56.029Z,98977.63
2023-02-01T05:13:17.529Z,98985.47
2023-02-01T05:15:20.201Z,98993.88
2023-02-01T05:17:22.937Z,98997.66
2023-02-01T05:19:25.571Z,98988.19
2023-02-01T05:21:28.260Z,98996.06
2023-02-01T05:23:31.101Z,99003.91
2023-02-01T05:25:33.774Z,98997.44
2023-02-01T05:27:36.744Z,99001.25
2023-02-01T05:29:39.435Z,99006.31
2023-02-01T05:31:42.925Z,99000.44
2023-02-01T05:33:45.628Z,99001.50
2023-02-01T05:35:48.307Z,99007.47
2023-02-01T05:37:51.142Z,99009.88
2023-02-01T05:39:53.870Z,99008.81
2023-02-01T05:41:56.904Z,99008.78
2023-02-01T05:43:59.490Z,99011.19
2023-02-01T05:46:02.405Z,99010.91
2023-02-01T05:48:05.411Z,99006.31
2023-02-01T05:50:08.762Z,99006.63
2023-02-01T05:52:11.409Z,99005.00
2023-02-01T05:54:14.263Z,99002.34
2023-02-01T05:56:16.903Z,98997.22
2023-02-01T05:58:19.505Z,98993.69
2023-02-01T06:00:22.961Z,98988.59
2023-02-01T06:02:26.180Z,99000.75
2023-02-01T06:04:28.891Z,98999.94
2023-02-01T06:06:31.575Z,98996.97
2023-02-01T06:08:34.298Z,98995.31
2023-02-01T06:10:37.912Z,98991.56
2023-02-01T06:12:40.703Z,98988.59
2023-02-01T06:14:44.578Z,99004.56
2023-02-01T06:16:47.821Z,99002.41
2023-02-01T06:18:50.676Z,99003.19
2023-02-01T06:20:57.500Z,99007.00
2023-02-01T06:23:00.170Z,99006.22
2023-02-01T06:25:04.665Z,99015.94
2023-02-01T06:27:08.151Z,99010.88
2023-02-01T06:29:14.445Z,99014.13
2023-02-01T06:31:17.350Z,99012.53
2023-02-01T06:33:20.161Z,99010.88
2023-02-01T06:35:22.847Z,99024.94
2023-02-01T06:37:31.605Z,99023.84
2023-02-01T06:39:34.626Z,99029.28
2023-02-01T06:41:37.306Z,99025.56
2023-02-01T06:43:40.057Z,99025.53
2023-02-01T06:45:43.012Z,99032.84
2023-02-01T06:47:45.805Z,99030.94
2023-02-01T06:49:48.439Z,99023.47
2023-02-01T06:51:51.214Z,99037.25
2023-02-01T06:53:54.538Z,99031.06
2023-02-01T06:56:01.186Z,99039.94
2023-02-01T06:58:04.264Z,99036.72
2023-02-01T07:00:07.550Z,99056.69
2023-02-01T07:02:13.575Z,99049.13
2023-02-01T07:04:16.463Z,99042.84
2023-02-01T07:06:19.758Z,99051.25
2023-02-01T07:08:22.597Z,99047.97
2023-02-01T07:10:25.439Z,99054.16
2023-02-01T07:12:28.470Z,99050.34
2023-02-01T07:14:31.196Z,99053.09
2023-02-01T07:16:33.884Z,99037.41
2023-02-01T07:18:36.629Z,99047.44
2023-02-01T07:20:39.300Z,99041.75
2023-02-01T07:22:41.907Z,99043.88
2023-02-01T07:24:44.625Z,99036.28
2023-02-01T07:26:49.042Z,99038.25
2023-02-01T07:28:51.712Z,99032.41
2023-02-01T07:30:54.542Z,99045.31
2023-02-01T07:33:00.566Z,99031.56
2023-02-01T07:35:03.273Z,99041.59
2023-02-01T07:37:06.684Z,99024.19
2023-02-01T07:39:09.465Z,99033.94
2023-02-01T07:41:12.436Z,99039.69
2023-02-01T07:43:15.280Z,99034.28
2023-02-01T07:45:21.298Z,99041.84
2023-02-01T07:47:24.343Z,99044.81
2023-02-01T07:49:27.190Z,99044.53
2023-02-01T07:51:29.981Z,99046.47
2023-02-01T07:53:34.228Z,99041.84
2023-02-01T07:55:39.654Z,99060.44
2023-02-01T07:57:42.862Z,99058.81
2023-02-01T08:00:04.071Z,99054.78
2023-02-01T08:02:07.249Z,99059.09
2023-02-01T08:04:12.494Z,99060.75
2023-02-01T08:06:15.413Z,99065.06
2023-02-01T08:08:18.134Z,99060.50
2023-02-01T08:10:21.472Z,99062.13
2023-02-01T08:12:25.604Z,99068.63
2023-02-01T08:14:29.222Z,99061.31
2023-02-01T08:16:32.193Z,99061.00
2023-02-01T08:18:36.659Z,99068.28
2023-02-01T08:20:42.667Z,99054.31
2023-02-01T08:22:45.839Z,99064.16
2023-02-01T08:24:51.277Z,99060.72
2023-02-01T08:26:54.089Z,99051.81
2023-02-01T08:29:00.884Z,99055.88
2023-02-01T08:31:09.976Z,99055.63
2023-02-01T08:33:12.949Z,99050.75
2023-02-01T08:35:15.744Z,99067.25
2023-02-01T08:37:18.400Z,99070.00
2023-02-01T08:39:21.076Z,99058.38
2023-02-01T08:41:27.007Z,99061.03
2023-02-01T08:43:29.760Z,99051.84
2023-02-01T08:45:33.276Z,99053.50
2023-02-01T08:47:36.565Z,99053.19
2023-02-01T08:49:39.297Z,99055.13
2023-02-01T08:51:41.985Z,99052.66
2023-02-01T08:53:45.052Z,99055.06
2023-02-01T08:55:48.312Z,99052.09
2023-02-01T08:57:51.036Z,99047.50
2023-02-01T08:59:53.698Z,99053.44
2023-02-01T09:01:57.438Z,99054.81
2023-02-01T09:04:00.195Z,99063.19
2023-02-01T09:06:08.725Z,99063.75
2023-02-01T09:08:13.659Z,99055.09
2023-02-01T09:10:18.901Z,99059.94
2023-02-01T09:12:24.251Z,99054.78
2023-02-01T09:14:27.053Z,99057.97
2023-02-01T09:16:29.692Z,99059.56
2023-02-01T09:18:32.523Z,99051.97
2023-02-01T09:20:35.340Z,99056.06
2023-02-01T09:22:38.064Z,99052.84
2023-02-01T09:24:40.749Z,99049.84
2023-02-01T09:26:43.608Z,99062.00
2023-02-01T09:28:46.317Z,99058.94
2023-02-01T09:30:49.120Z,99053.22
2023-02-01T09:32:51.984Z,99059.97
2023-02-01T09:34:54.766Z,99054.00
2023-02-01T09:36:57.595Z,99059.66
2023-02-01T09:39:00.751Z,99069.09
2023-02-01T09:41:20.180Z,99060.72
2023-02-01T09:43:43.008Z,99064.00
2023-02-01T09:46:08.020Z,99069.41
2023-02-01T09:48:17.901Z,99071.81
2023-02-01T09:50:29.464Z,99074.34
2023-02-01T09:52:58.832Z,99065.16
2023-02-01T09:55:05.796Z,99075.97
2023-02-01T09:57:32.236Z,99072.28
2023-02-01T09:59:42.955Z,99072.28
2023-02-01T10:01:45.729Z,99066.38
2023-02-01T10:03:49.399Z,99074.19
2023-02-01T10:06:07.311Z,99075.03
2023-02-01T10:08:51.207Z,99062.59
2023-02-01T10:11:06.089Z,99068.53
2023-02-01T10:13:30.301Z,99076.63
2023-02-01T10:15:45.250Z,99084.97
2023-02-01T10:18:16.380Z,99085.53
2023-02-01T10:20:29.765Z,99082.53
2023-02-01T10:25:28.680Z,99092.56
2023-02-01T10:27:36.871Z,99094.97
2023-02-01T10:29:42.527Z,99091.63
2023-02-01T10:31:45.995Z,99086.28
2023-02-01T10:33:52.748Z,99085.44
2023-02-01T10:36:04.543Z,99085.16
2023-02-01T10:38:18.471Z,99096.81
2023-02-01T10:40:26.994Z,99090.91
2023-02-01T10:42:30.849Z,99091.72
2023-02-01T10:44:41.828Z,99103.34
2023-02-01T10:46:44.978Z,99102.56
2023-02-01T10:48:49.778Z,99100.09
2023-02-01T10:51:00.030Z,99097.94
2023-02-01T10:53:08.438Z,99105.25
2023-02-01T10:55:33.093Z,99096.03
2023-02-01T10:57:37.439Z,99097.94
2023-02-01T10:59:45.978Z,99108.03
2023-02-01T11:01:52.160Z,99102.63
2023-02-01T11:03:59.852Z,99112.63
2023-02-01T11:06:11.843Z,99112.88
2023-02-01T11:08:25.772Z,99108.84
2023-02-01T11:10:44.892Z,99099.94
2023-02-01T11:12:55.258Z,99102.16
2023-02-01T11:15:03.738Z,99106.50
2023-02-01T11:17:15.865Z,99099.16
2023-02-01T11:19:19.140Z,99093.16
2023-02-01T11:21:22.603Z,99098.00
2023-02-01T11:23:30.916Z,99096.09
2023-02-01T11:25:37.718Z,99097.09
2023-02-01T11:27:53.063Z,99101.63
2023-02-01T11:30:02.745Z,99103.75
2023-02-01T11:32:09.920Z,99098.91
2023-02-01T11:34:20.892Z,99096.75
2023-02-01T11:36:28.668Z,99098.03
2023-02-01T11:38:33.943Z,99102.28
2023-02-01T11:40:38.870Z,99098.69
2023-02-01T11:43:09.015Z,99104.31
2023-02-01T11:45:20.327Z,99093.16
2023-02-01T11:47:29.613Z,99087.66
2023-02-01T11:49:32.292Z,99100.97
2023-02-01T11:52:10.788Z,99099.28
2023-02-01T11:54:27.808Z,99102.81
2023-02-01T11:56:51.432Z,99106.00
2023-02-01T11:59:18.125Z,99110.28
2023-02-01T12:01:29.678Z,99108.47
2023-02-01T12:03:41.422Z,99103.63
2023-02-01T12:05:45.983Z,99113.56
2023-02-01T12:08:09.799Z,99118.16
2023-02-01T12:10:18.407Z,99117.59
2023-02-01T12:13:07.733Z,99113.81
2023-02-01T12:15:40.582Z,99109.13
2023-02-01T12:18:12.018Z,99103.22
2023-02-01T12:20:36.537Z,99101.38
2023-02-01T12:23:06.809Z,99102.81
2023-02-01T12:25:22.060Z,99099.56
2023-02-01T12:27:46.264Z,99096.69
2023-02-01T12:29:48.788Z,99097.97
2023-02-01T12:32:26.336Z,99103.75
2023-02-01T12:35:14.579Z,99100.91
2023-02-01T12:37:35.387Z,99093.88
2023-02-01T12:39:45.600Z,99096.34
2023-02-01T12:42:09.224Z,99094.41
2023-02-01T12:44:14.550Z,99100.75
2023-02-01T12:46:28.253Z,99102.81
2023-02-01T12:48:40.834Z,99102.78
2023-02-01T12:50:54.205Z,99106.91
2023-02-01T12:53:26.211Z,99101.97
2023-02-01T12:55:51.342Z,99100.06
2023-02-01T12:58:07.593Z,99106.94
2023-02-01T13:00:39.921Z,99112.69
2023-02-01T13:02:52.438Z,99111.53
2023-02-01T13:05:12.837Z,99112.97
2023-02-01T13:07:21.487Z,99110.22
2023-02-01T13:09:53.641Z,99118.63
2023-02-01T13:12:02.361Z,99121.75
2023-02-01T13:14:23.484Z,99119.94
2023-02-01T13:16:32.812Z,99124.16
2023-02-01T13:18:39.460Z,99117.31
2023-02-01T13:21:11.845Z,99126.44
2023-02-01T13:23:31.268Z,99130.78
2023-02-01T13:25:50.780Z,99132.22
2023-02-01T13:27:58.643Z,99138.19
2023-02-01T13:30:06.782Z,99129.97
2023-02-01T13:33:50.926Z,99131.41
2023-02-01T13:35:18.775Z,99132.72
2023-02-01T13:37:27.274Z,99142.97
2023-02-01T13:39:41.772Z,99135.06
2023-02-01T13:41:58.759Z,99134.00
2023-02-01T13:44:07.308Z,99129.59
2023-02-01T13:46:15.977Z,99140.28
2023-02-01T13:48:30.792Z,99142.56
2023-02-01T13:50:38.715Z,99135.88
2023-02-01T13:52:53.131Z,99138.09
2023-02-01T13:55:22.227Z,99134.13
2023-02-01T13:57:38.003Z,99130.78
2023-02-01T13:59:40.535Z,99138.50
2023-02-01T14:01:43.353Z,99128.72
2023-02-01T14:03:54.415Z,99128.22
2023-02-01T14:05:58.466Z,99129.53
2023-02-01T14:08:07.374Z,99142.16
2023-02-01T14:10:55.416Z,99144.28
2023-02-01T14:13:30.758Z,99137.25
2023-02-01T14:15:33.458Z,99141.31
2023-02-01T14:17:37.356Z,99148.94
2023-02-01T14:19:40.076Z,99161.66
2023-02-01T14:22:02.252Z,99152.81
2023-02-01T14:24:10.556Z,99157.38
2023-02-01T14:26:43.635Z,99158.50
2023-02-01T14:28:51.949Z,99161.19
2023-02-01T14:30:57.890Z,99143.13
2023-02-01T14:33:12.485Z,99156.09
2023-02-01T14:35:22.519Z,99155.38
2023-02-01T14:37:27.535Z,99155.59
2023-02-01T14:40:05.164Z,99150.00
2023-02-01T14:42:23.658Z,99146.56
2023-02-01T14:44:34.189Z,99151.25
2023-02-01T14:47:26.612Z,99149.19
2023-02-01T14:49:43.868Z,99149.75
2023-02-01T14:51:46.839Z,99158.84
2023-02-01T14:53:50.795Z,99155.72
2023-02-01T14:56:13.002Z,99139.09
2023-02-01T14:58:33.661Z,99155.41
2023-02-01T15:00:36.483Z,99141.28
2023-02-01T15:02:41.032Z,99150.97
2023-02-01T15:04:44.495Z,99148.28
2023-02-01T15:06:58.580Z,99147.44
2023-02-01T15:09:15.748Z,99154.31
2023-02-01T15:11:18.384Z,99152.13
2023-02-01T15:13:28.115Z,99154.94
2023-02-01T15:15:34.618Z,99140.50
2023-02-01T15:17:37.428Z,99159.03
2023-02-01T15:19:40.175Z,99156.22
2023-02-01T15:21:50.377Z,99155.88
2023-02-01T15:24:12.277Z,99162.78
2023-02-01T15:26:27.390Z,99146.78
2023-02-01T15:28:30.208Z,99150.88
2023-02-01T15:30:35.615Z,99165.81
2023-02-01T15:32:41.016Z,99154.28
2023-02-01T15:34:49.039Z,99156.03
2023-02-01T15:37:03.369Z,99150.31
2023-02-01T15:39:26.954Z,99151.72
2023-02-01T15:41:32.722Z,99142.41
2023-02-01T15:43:53.014Z,99148.81
2023-02-01T15:46:00.932Z,99159.19
2023-02-01T15:48:04.151Z,99150.94
2023-02-01T15:50:08.248Z,99155.47
2023-02-01T15:52:35.955Z,99158.16
2023-02-01T15:54:47.561Z,99162.72
2023-02-01T15:56:56.650Z,99167.69
2023-02-01T15:59:02.832Z,99166.84
2023-02-01T16:01:08.070Z,99161.00
2023-02-01T16:03:40.093Z,99161.09
2023-02-01T16:05:45.832Z,99164.34
2023-02-01T16:08:04.675Z,99162.09
2023-02-01T16:10:25.996Z,99157.97
2023-02-01T16:12:32.713Z,99159.53
2023-02-01T16:14:35.318Z,99164.75
2023-02-01T16:16:37.914Z,99157.28
2023-02-01T16:18:43.922Z,99158.53
2023-02-01T16:20:48.964Z,99163.09
2023-02-01T16:22:51.721Z,99154.38
2023-02-01T16:24:54.619Z,99153.91
2023-02-01T16:26:57.240Z,99162.09
2023-02-01T16:29:02.947Z,99162.47
2023-02-01T16:31:05.775Z,99154.66
2023-02-01T16:33:17.116Z,99160.81
2023-02-01T16:35:25.417Z,99158.94
2023-02-01T16:37:30.388Z,99155.47
2023-02-01T16:39:34.471Z,99157.19
2023-02-01T16:41:37.895Z,99157.53
2023-02-01T16:43:41.091Z,99154.50
2023-02-01T16:45:48.843Z,99154.38
2023-02-01T16:47:55.678Z,99151.91
2023-02-01T16:49:58.273Z,99162.25
2023-02-01T16:52:01.075Z,99156.22
2023-02-01T16:54:04.353Z,99148.19
2023-02-01T16:56:17.604Z,99154.50
2023-02-01T16:58:21.931Z,99155.47
2023-02-01T17:00:26.404Z,99156.88
2023-02-01T17:02:29.131Z,99155.97
2023-02-01T17:04:31.907Z,99154.22
2023-02-01T17:06:37.987Z,99158.81
2023-02-01T17:08:43.564Z,99153.50
2023-02-01T17:10:46.760Z,99161.44
2023-02-01T17:12:49.382Z,99159.69
2023-02-01T17:14:52.948Z,99176.88
2023-02-01T17:16:55.817Z,99170.91
2023-02-01T17:19:03.381Z,99166.16
2023-02-01T17:21:06.828Z,99166.16
2023-02-01T17:23:10.021Z,99165.47
2023-02-01T17:25:18.474Z,99168.47
2023-02-01T17:27:21.308Z,99168.84
2023-02-01T17:29:24.682Z,99172.03
2023-02-01T17:31:27.513Z,99173.75
2023-02-01T17:33:36.837Z,99173.28
2023-02-01T17:35:39.543Z,99178.22
2023-02-01T17:37:42.144Z,99175.53
2023-02-01T17:39:57.069Z,99172.16
2023-02-01T17:42:01.092Z,99178.44
2023-02-01T17:44:05.468Z,99172.47
2023-02-01T17:46:16.210Z,99173.63
2023-02-01T17:48:21.200Z,99176.09
2023-02-01T17:50:27.147Z,99173.41
2023-02-01T17:52:30.051Z,99175.84
2023-02-01T17:54:32.690Z,99168.47
2023-02-01T17:56:35.371Z,99175.13
2023-02-01T17:58:37.911Z,99180.25
2023-02-01T18:00:42.346Z,99185.84
2023-02-01T18:02:45.294Z,99189.81
2023-02-01T18:04:48.300Z,99186.31
2023-02-01T18:06:50.910Z,99189.59
2023-02-01T18:08:54.497Z,99183.41
2023-02-01T18:11:02.468Z,99187.72
2023-02-01T18:13:05.367Z,99172.31
2023-02-01T18:15:15.756Z,99183.53
2023-02-01T18:17:18.616Z,99187.25
2023-02-01T18:19:21.151Z,99182.94
2023-02-01T18:21:24.068Z,99187.94
2023-02-01T18:23:26.820Z,99186.22
2023-02-01T18:25:34.255Z,99181.22
2023-02-01T18:27:36.954Z,99180.78
2023-02-01T18:29:39.691Z,99183.56
2023-02-01T18:31:47.483Z,99175.75
2023-02-01T18:33:51.950Z,99173.53
2023-02-01T18:35:54.571Z,99180.06
2023-02-01T18:37:57.889Z,99182.41
2023-02-01T18:40:00.628Z,99189.28
2023-02-01T18:42:03.247Z,99183.09
2023-02-01T18:44:05.833Z,99180.19
2023-02-01T18:46:11.360Z,99172.59
2023-02-01T18:48:16.542Z,99185.69
2023-02-01T18:50:19.640Z,99167.22
2023-02-01T18:52:22.199Z,99164.69
2023-02-01T18:54:25.034Z,99181.50
2023-02-01T18:56:27.797Z,99175.66
2023-02-01T18:58:30.426Z,99174.84
2023-02-01T19:00:35.178Z,99186.00
2023-02-01T19:02:41.802Z,99193.72
2023-02-01T19:04:44.685Z,99192.53
2023-02-01T19:06:47.325Z,99206.41
2023-02-01T19:08:51.461Z,99193.13
2023-02-01T19:10:54.867Z,99198.34
2023-02-01T19:12:58.100Z,99192.53
2023-02-01T19:15:00.981Z,99198.69
2023-02-01T19:17:03.625Z,99193.81
2023-02-01T19:19:06.495Z,99204.56
2023-02-01T19:21:11.687Z,99196.59
2023-02-01T19:23:14.632Z,99194.28
2023-02-01T19:25:20.035Z,99192.44
2023-02-01T19:27:22.716Z,99204.44
2023-02-01T19:29:25.559Z,99203.03
2023-02-01T19:31:28.385Z,99202.31
2023-02-01T19:33:31.363Z,99204.53
2023-02-01T19:35:34.059Z,99202.53
2023-02-01T19:37:37.141Z,99201.00
2023-02-01T19:39:41.227Z,99200.88
2023-02-01T19:41:43.780Z,99206.22
2023-02-01T19:43:46.769Z,99208.66
2023-02-01T19:45:49.432Z,99210.66
2023-02-01T19:47:53.574Z,99206.94
2023-02-01T19:49:56.214Z,99219.06
2023-02-01T19:51:58.947Z,99217.28
2023-02-01T19:54:01.572Z,99216.69
2023-02-01T19:56:04.454Z,99214.47
2023-02-01T19:58:07.156Z,99208.66
2023-02-01T20:00:13.528Z,99207.94
2023-02-01T20:02:16.214Z,99203.16
2023-02-01T20:04:19.669Z,99218.19
2023-02-01T20:06:22.264Z,99207.63
2023-02-01T20:08:26.074Z,99211.06
2023-02-01T20:10:29.040Z,99209.88
2023-02-01T20:12:31.685Z,99208.25
2023-02-01T20:14:34.339Z,99212.13
2023-02-01T20:16:36.990Z,99209.56
2023-02-01T20:18:39.932Z,99213.28
2023-02-01T20:20:42.852Z,99206.75
2023-02-01T20:22:45.664Z,99206.97
2023-02-01T20:24:48.293Z,99203.56
2023-02-01T20:26:51.917Z,99208.88
2023-02-01T20:28:55.992Z,99205.66
2023-02-01T20:30:58.972Z,99213.41
2023-02-01T20:33:01.945Z,99209.78
2023-02-01T20:35:04.697Z,99217.22
2023-02-01T20:37:07.278Z,99220.81
2023-02-01T20:39:13.030Z,99211.63
2023-02-01T20:41:15.618Z,99220.56
2023-02-01T20:43:18.373Z,99215.72
2023-02-01T20:45:21.174Z,99219.91
2023-02-01T20:47:23.802Z,99215.69
2023-02-01T20:49:26.586Z,99209.41
2023-02-01T20:51:29.166Z,99224.50
2023-02-01T20:53:31.936Z,99219.44
2023-02-01T20:55:34.560Z,99234.31
2023-02-01T20:57:37.137Z,99224.53
2023-02-01T20:59:39.761Z,99224.38
2023-02-01T21:01:53.125Z,99214.97
2023-02-01T21:03:55.922Z,99219.53
2023-02-01T21:06:00.331Z,99224.72
2023-02-01T21:08:02.889Z,99220.22
2023-02-01T21:10:06.599Z,99219.03
2023-02-01T21:12:09.867Z,99231.41
2023-02-01T21:14:12.568Z,99230.88
2023-02-01T21:16:15.346Z,99232.13
2023-02-01T21:18:18.114Z,99237.22
2023-02-01T21:20:20.990Z,99237.66
2023-02-01T21:22:23.863Z,99236.44
2023-02-01T21:24:26.503Z,99232.34
2023-02-01T21:26:40.991Z,99225.78
2023-02-01T21:28:43.732Z,99226.81
2023-02-01T21:30:46.369Z,99230.09
2023-02-01T21:32:50.254Z,99218.63
2023-02-01T21:34:53.047Z,99223.72
2023-02-01T21:36:55.668Z,99225.38
2023-02-01T21:39:03.885Z,99221.91
2023-02-01T21:41:25.163Z,99227.88
2023-02-01T21:43:27.741Z,99218.03
2023-02-01T21:45:30.407Z,99223.56
2023-02-01T21:47:33.018Z,99229.94
2023-02-01T21:49:36.685Z,99230.38
2023-02-01T21:51:40.050Z,99231.81
2023-02-01T21:53:44.466Z,99227.72
2023-02-01T21:55:47.151Z,99228.13
2023-02-01T21:57:51.906Z,99216.84
2023-02-01T21:59:54.579Z,99231.44
2023-02-01T22:01:57.133Z,99222.00
2023-02-01T22:03:59.856Z,99227.53
2023-02-01T22:06:02.600Z,99236.75
2023-02-01T22:08:05.526Z,99238.00
2023-02-01T22:10:10.275Z,99247.63
2023-02-01T22:12:14.493Z,99243.13
2023-02-01T22:14:17.833Z,99241.72
2023-02-01T22:16:21.707Z,99238.63
2023-02-01T22:18:24.444Z,99239.25
2023-02-01T22:20:28.308Z,99237.81
2023-02-01T22:22:31.055Z,99251.13
2023-02-01T22:24:35.721Z,99242.56
2023-02-01T22:26:38.862Z,99236.97
2023-02-01T22:28:41.733Z,99239.66
2023-02-01T22:30:44.409Z,99238.66
2023-02-01T22:32:47.251Z,99238.22
2023-02-01T22:34:49.995Z,99240.28
2023-02-01T22:36:52.635Z,99245.19
2023-02-01T22:38:55.446Z,99236.59
2023-02-01T22:41:00.052Z,99242.53
2023-02-01T22:43:03.292Z,99247.84
2023-02-01T22:45:06.302Z,99244.97
2023-02-01T22:47:09.693Z,99244.53
2023-02-01T22:49:13.132Z,99242.88
2023-02-01T22:51:19.493Z,99243.91
2023-02-01T22:53:22.037Z,99237.34
2023-02-01T22:55:24.881Z,99238.16
2023-02-01T22:57:27.620Z,99251.31
2023-02-01T22:59:30.282Z,99258.88
2023-02-01T23:01:33.825Z,99252.91
2023-02-01T23:03:38.443Z,99251.88
2023-02-01T23:05:41.052Z,99254.16
2023-02-01T23:07:46.807Z,99244.31
2023-02-01T23:09:49.381Z,99243.94
2023-02-01T23:11:53.028Z,99256.22
2023-02-01T23:13:56.223Z,99256.84
2023-02-01T23:15:58.824Z,99244.97
2023-02-01T23:18:01.481Z,99246.41
2023-02-01T23:20:09.248Z,99239.25
2023-02-01T23:22:11.977Z,99238.44
2023-02-01T23:24:14.654Z,99248.25
2023-02-01T23:26:18.276Z,99247.88
2023-02-01T23:28:20.991Z,99238.41
2023-02-01T23:30:23.667Z,99241.31
2023-02-01T23:32:26.258Z,99241.31
2023-02-01T23:34:28.861Z,99235.97
2023-02-01T23:36:33.759Z,99239.47
2023-02-01T23:38:36.954Z,99232.28
2023-02-01T23:40:39.521Z,99227.56
2023-02-01T23:43:02.023Z,99247.66
2023-02-01T23:45:05.510Z,99237.00
2023-02-01T23:47:09.402Z,99229.19
2023-02-01T23:49:12.013Z,99233.50
2023-02-01T23:51:15.809Z,99234.50
2023-02-01T23:53:18.549Z,99230.59
2023-02-01T23:55:21.205Z,99232.19
2023-02-01T23:57:23.984Z,99232.59
2023-02-01T23:59:26.988Z,99235.66
